Wetterdaten: Woche 18.06.12 - 24.06.12 (KW25)
Datum Zeit Temp. Innen Temp. Aussen UV X Diff Temp. Feuchte Inne Feuchte Auss Sonnenschein Luftdruck Regen ab 0,1 Wind Sonnenschein T Regendauer Windben
18.06.2012 00:00 21,9 C 13,4 C 0,0 UV-I 0,0 C 55 % 83 % 0 % 1018,3 hPa 0,0 l/m 0,0 km/h (0 Bft) 0,00 h 0,00 h 0,0 km/h (0 Bft)
18.06.2012 01:00 21,6 C 13,2 C 0,0 UV-I 0,0 C 56 % 86 % 0 % 1017,6 hPa 0,0 l/m 0,0 km/h (0 Bft) 0,00 h 0,00 h 0,0 km/h (0 Bft)
18.06.2012 02:00 21,4 C 13,0 C 0,0 UV-I 0,0 C 57 % 87 % 0 % 1016,9 hPa 0,0 l/m 0,0 km/h (0 Bft) 0,00 h 0,00 h 0,0 km/h (0 Bft)
18.06.2012 03:00 21,2 C 13,0 C 0,0 UV-I 0,0 C 57 % 88 % 0 % 1015,7 hPa 0,0 l/m 0,0 km/h (0 Bft) 0,00 h 0,00 h 0,0 km/h (0 Bft)
18.06.2012 04:00 21,1 C 12,8 C 0,0 UV-I 0,0 C 58 % 88 % 0 % 1014,3 hPa 0,0 l/m 0,0 km/h (0 Bft) 0,00 h 0,00 h 0,0 km/h (0 Bft)
18.06.2012 05:00 21,0 C 12,7 C 0,0 UV-I 0,0 C 58 % 89 % 0 % 1012,8 hPa 0,0 l/m 0,0 km/h (0 Bft) 0,00 h 0,00 h 0,0 km/h (0 Bft)
18.06.2012 06:00 21,0 C 13,5 C 0,0 UV-I 0,1 C 58 % 89 % 2 % 1011,5 hPa 0,0 l/m 0,0 km/h (0 Bft) 0,00 h 0,00 h 0,0 km/h (0 Bft)
18.06.2012 07:00 21,2 C 14,9 C 0,0 UV-I 0,8 C 58 % 86 % 23 % 1009,8 hPa 0,0 l/m 1,9 km/h (1 Bft) 0,00 h 0,00 h 4,6 km/h (1 Bft)
18.06.2012 08:00 21,2 C 15,2 C 0,0 UV-I 0,0 C 58 % 87 % 0 % 1010,4 hPa 5,8 l/m 4,2 km/h (1 Bft) 0,00 h 0,80 h 6,7 km/h (2 Bft)
18.06.2012 09:00 21,2 C 15,0 C 0,6 UV-I 0,7 C 60 % 92 % 21 % 1009,9 hPa 0,1 l/m 1,0 km/h (0 Bft) 0,07 h 0,03 h 3,2 km/h (1 Bft)
18.06.2012 10:00 21,6 C 16,8 C 1,3 UV-I 2,3 C 61 % 92 % 65 % 1010,6 hPa 0,0 l/m 7,6 km/h (2 Bft) 0,27 h 0,00 h 17,1 km/h (3 Bft)
18.06.2012 11:00 21,8 C 18,0 C 3,1 UV-I 5,2 C 61 % 87 % 93 % 1011,8 hPa 0,0 l/m 7,6 km/h (2 Bft) 0,87 h 0,00 h 11,2 km/h (2 Bft)
18.06.2012 12:00 22,0 C 19,4 C 2,4 UV-I 5,8 C 60 % 80 % 100 % 1013,3 hPa 0,0 l/m 8,2 km/h (2 Bft) 1,00 h 0,00 h 15,8 km/h (3 Bft)
18.06.2012 13:00 22,4 C 20,7 C 2,5 UV-I 5,3 C 60 % 75 % 100 % 1014,5 hPa 0,0 l/m 8,5 km/h (2 Bft) 1,00 h 0,00 h 18,0 km/h (3 Bft)
18.06.2012 14:00 23,0 C 20,7 C 1,4 UV-I 3,2 C 58 % 72 % 76 % 1015,6 hPa 0,0 l/m 6,6 km/h (2 Bft) 0,60 h 0,00 h 11,3 km/h (2 Bft)
18.06.2012 15:00 23,2 C 20,0 C 1,3 UV-I 2,4 C 57 % 76 % 69 % 1016,2 hPa 0,0 l/m 4,3 km/h (1 Bft) 0,30 h 0,00 h 9,2 km/h (2 Bft)
18.06.2012 16:00 23,3 C 20,1 C 1,1 UV-I 2,7 C 56 % 75 % 76 % 1017,0 hPa 0,0 l/m 4,7 km/h (1 Bft) 0,47 h 0,00 h 8,6 km/h (2 Bft)
18.06.2012 17:00 23,4 C 19,8 C 1,5 UV-I 2,6 C 56 % 74 % 73 % 1017,2 hPa 0,0 l/m 4,5 km/h (1 Bft) 0,60 h 0,00 h 9,0 km/h (2 Bft)
18.06.2012 18:00 23,8 C 20,2 C 1,0 UV-I 2,4 C 55 % 72 % 70 % 1017,5 hPa 0,0 l/m 4,4 km/h (1 Bft) 0,27 h 0,00 h 9,6 km/h (2 Bft)
18.06.2012 19:00 23,6 C 19,5 C 0,2 UV-I 0,9 C 54 % 72 % 25 % 1018,0 hPa 0,0 l/m 4,0 km/h (1 Bft) 0,00 h 0,00 h 7,3 km/h (2 Bft)
18.06.2012 20:00 23,3 C 18,7 C 0,0 UV-I 0,1 C 55 % 74 % 2 % 1018,6 hPa 0,0 l/m 1,7 km/h (1 Bft) 0,00 h 0,00 h 3,7 km/h (1 Bft)
18.06.2012 21:00 22,9 C 17,7 C 0,0 UV-I 0,0 C 56 % 77 % 0 % 1019,0 hPa 0,0 l/m 1,1 km/h (1 Bft) 0,00 h 0,00 h 4,5 km/h (1 Bft)
18.06.2012 22:00 22,6 C 16,4 C 0,0 UV-I 0,0 C 57 % 80 % 0 % 1019,6 hPa 0,0 l/m 0,1 km/h (0 Bft) 0,00 h 0,00 h 0,2 km/h (0 Bft)
18.06.2012 23:00 22,2 C 15,0 C 0,0 UV-I 0,0 C 58 % 84 % 0 % 1020,0 hPa 0,0 l/m 0,0 km/h (0 Bft) 0,00 h 0,00 h 0,0 km/h (0 Bft)
19.06.2012 00:00 22,0 C 14,4 C 0,0 UV-I 0,0 C 59 % 87 % 0 % 1020,4 hPa 0,0 l/m 0,0 km/h (0 Bft) 0,00 h 0,00 h 0,0 km/h (0 Bft)
19.06.2012 01:00 21,7 C 13,5 C 0,0 UV-I 0,0 C 59 % 88 % 0 % 1020,6 hPa 0,0 l/m 0,0 km/h (0 Bft) 0,00 h 0,00 h 0,0 km/h (0 Bft)
19.06.2012 02:00 21,5 C 12,8 C 0,0 UV-I 0,0 C 60 % 90 % 0 % 1020,7 hPa 0,0 l/m 0,0 km/h (0 Bft) 0,00 h 0,00 h 0,0 km/h (0 Bft)
19.06.2012 03:00 21,3 C 12,1 C 0,0 UV-I 0,0 C 59 % 91 % 0 % 1020,9 hPa 0,0 l/m 0,0 km/h (0 Bft) 0,00 h 0,00 h 0,0 km/h (0 Bft)
19.06.2012 04:00 21,2 C 11,5 C 0,0 UV-I 0,0 C 59 % 93 % 0 % 1020,9 hPa 0,0 l/m 0,0 km/h (0 Bft) 0,00 h 0,00 h 0,0 km/h (0 Bft)
19.06.2012 05:00 21,0 C 11,2 C 0,0 UV-I 0,0 C 59 % 93 % 0 % 1020,9 hPa 0,0 l/m 0,0 km/h (0 Bft) 0,00 h 0,00 h 0,0 km/h (0 Bft)
19.06.2012 06:00 20,8 C 11,1 C 0,0 UV-I 0,0 C 60 % 94 % 0 % 1020,7 hPa 0,0 l/m 0,0 km/h (0 Bft) 0,00 h 0,00 h 0,0 km/h (0 Bft)
19.06.2012 07:00 20,8 C 11,9 C 0,1 UV-I 0,6 C 60 % 96 % 16 % 1020,3 hPa 0,0 l/m 0,0 km/h (0 Bft) 0,00 h 0,03 h 0,0 km/h (0 Bft)
19.06.2012 08:00 21,1 C 13,8 C 0,5 UV-I 2,6 C 60 % 96 % 71 % 1020,7 hPa 0,0 l/m 0,0 km/h (0 Bft) 0,27 h 0,00 h 0,0 km/h (0 Bft)
19.06.2012 09:00 21,5 C 16,2 C 2,2 UV-I 6,9 C 60 % 91 % 100 % 1020,7 hPa 0,0 l/m 3,2 km/h (1 Bft) 1,00 h 0,00 h 8,0 km/h (2 Bft)
19.06.2012 10:00 21,8 C 17,7 C 2,6 UV-I 6,0 C 59 % 81 % 100 % 1020,2 hPa 0,0 l/m 5,5 km/h (1 Bft) 1,00 h 0,00 h 9,2 km/h (2 Bft)
19.06.2012 11:00 22,2 C 19,0 C 2,0 UV-I 5,9 C 58 % 73 % 100 % 1019,9 hPa 0,0 l/m 4,0 km/h (1 Bft) 1,00 h 0,00 h 8,4 km/h (2 Bft)
19.06.2012 12:00 22,5 C 19,1 C 1,0 UV-I 2,7 C 57 % 71 % 77 % 1019,8 hPa 0,0 l/m 2,8 km/h (1 Bft) 0,27 h 0,00 h 5,7 km/h (1 Bft)
19.06.2012 13:00 22,6 C 19,1 C 1,2 UV-I 2,2 C 57 % 72 % 62 % 1018,9 hPa 0,0 l/m 9,1 km/h (2 Bft) 0,00 h 0,00 h 14,3 km/h (3 Bft)
19.06.2012 14:00 22,9 C 19,8 C 2,0 UV-I 3,9 C 56 % 70 % 95 % 1018,9 hPa 0,0 l/m 7,6 km/h (2 Bft) 0,87 h 0,00 h 11,5 km/h (2 Bft)
19.06.2012 15:00 23,2 C 20,0 C 1,2 UV-I 2,6 C 55 % 69 % 70 % 1018,9 hPa 0,0 l/m 7,3 km/h (2 Bft) 0,40 h 0,00 h 12,2 km/h (2 Bft)
19.06.2012 16:00 23,1 C 19,6 C 0,6 UV-I 1,3 C 55 % 70 % 38 % 1018,2 hPa 0,0 l/m 7,7 km/h (2 Bft) 0,00 h 0,00 h 10,9 km/h (2 Bft)
19.06.2012 17:00 22,9 C 19,3 C 0,3 UV-I 0,8 C 55 % 72 % 24 % 1017,6 hPa 0,0 l/m 7,7 km/h (2 Bft) 0,00 h 0,00 h 11,4 km/h (2 Bft)
19.06.2012 18:00 22,9 C 19,7 C 0,8 UV-I 1,9 C 56 % 71 % 55 % 1017,4 hPa 0,0 l/m 9,0 km/h (2 Bft) 0,20 h 0,00 h 13,2 km/h (3 Bft)
19.06.2012 19:00 23,1 C 20,0 C 0,4 UV-I 1,0 C 55 % 70 % 28 % 1017,2 hPa 0,0 l/m 8,7 km/h (2 Bft) 0,00 h 0,00 h 12,7 km/h (3 Bft)
19.06.2012 20:00 23,0 C 19,6 C 0,0 UV-I 0,1 C 55 % 73 % 4 % 1016,9 hPa 0,0 l/m 7,3 km/h (2 Bft) 0,00 h 0,00 h 10,3 km/h (2 Bft)
19.06.2012 21:00 22,8 C 18,6 C 0,0 UV-I 0,0 C 56 % 76 % 0 % 1017,1 hPa 0,0 l/m 2,1 km/h (1 Bft) 0,00 h 0,00 h 3,3 km/h (1 Bft)
19.06.2012 22:00 22,5 C 17,5 C 0,0 UV-I 0,0 C 57 % 80 % 0 % 1017,3 hPa 0,0 l/m 2,7 km/h (1 Bft) 0,00 h 0,00 h 4,6 km/h (1 Bft)
19.06.2012 23:00 22,3 C 16,7 C 0,0 UV-I 0,0 C 58 % 83 % 0 % 1017,1 hPa 0,0 l/m 0,4 km/h (0 Bft) 0,00 h 0,00 h 1,7 km/h (1 Bft)
20.06.2012 00:00 22,1 C 16,4 C 0,0 UV-I 0,0 C 59 % 84 % 0 % 1016,5 hPa 0,0 l/m 1,3 km/h (1 Bft) 0,00 h 0,00 h 3,2 km/h (1 Bft)
20.06.2012 01:00 21,9 C 16,1 C 0,0 UV-I 0,0 C 59 % 85 % 0 % 1016,0 hPa 0,0 l/m 0,6 km/h (0 Bft) 0,00 h 0,00 h 2,7 km/h (1 Bft)
20.06.2012 02:00 21,8 C 15,9 C 0,0 UV-I 0,0 C 60 % 86 % 0 % 1016,1 hPa 0,0 l/m 0,8 km/h (0 Bft) 0,00 h 0,30 h 1,8 km/h (1 Bft)
20.06.2012 03:00 21,8 C 15,6 C 0,0 UV-I 0,0 C 60 % 88 % 0 % 1015,6 hPa 0,0 l/m 1,5 km/h (1 Bft) 0,00 h 0,60 h 3,8 km/h (1 Bft)
20.06.2012 04:00 21,7 C 15,2 C 0,0 UV-I 0,0 C 60 % 90 % 0 % 1014,9 hPa 0,4 l/m 1,1 km/h (1 Bft) 0,00 h 0,70 h 2,3 km/h (1 Bft)
20.06.2012 05:00 21,6 C 14,8 C 0,0 UV-I 0,0 C 60 % 91 % 0 % 1014,4 hPa 0,0 l/m 1,1 km/h (1 Bft) 0,00 h 0,27 h 3,0 km/h (1 Bft)
20.06.2012 06:00 21,5 C 14,7 C 0,0 UV-I 0,0 C 61 % 92 % 0 % 1014,6 hPa 0,0 l/m 1,8 km/h (1 Bft) 0,00 h 0,00 h 4,6 km/h (1 Bft)
20.06.2012 07:00 21,6 C 15,1 C 0,0 UV-I 0,1 C 61 % 92 % 2 % 1014,1 hPa 0,0 l/m 4,5 km/h (1 Bft) 0,00 h 0,00 h 8,8 km/h (2 Bft)
20.06.2012 08:00 21,6 C 15,6 C 0,0 UV-I 0,4 C 61 % 92 % 11 % 1014,3 hPa 0,0 l/m 6,1 km/h (2 Bft) 0,00 h 0,00 h 10,2 km/h (2 Bft)
20.06.2012 09:00 21,9 C 16,1 C 0,3 UV-I 1,0 C 61 % 91 % 28 % 1014,5 hPa 0,0 l/m 7,4 km/h (2 Bft) 0,00 h 0,17 h 12,2 km/h (2 Bft)
20.06.2012 10:00 22,2 C 16,8 C 0,6 UV-I 1,5 C 60 % 90 % 44 % 1014,6 hPa 0,0 l/m 8,7 km/h (2 Bft) 0,00 h 0,07 h 12,3 km/h (3 Bft)
20.06.2012 11:00 22,4 C 17,5 C 1,1 UV-I 2,2 C 60 % 89 % 64 % 1014,6 hPa 0,0 l/m 8,9 km/h (2 Bft) 0,27 h 0,00 h 14,1 km/h (3 Bft)
20.06.2012 12:00 22,8 C 18,9 C 2,3 UV-I 4,4 C 60 % 86 % 100 % 1014,5 hPa 0,0 l/m 9,5 km/h (2 Bft) 1,00 h 0,00 h 16,8 km/h (3 Bft)
20.06.2012 13:00 23,2 C 20,0 C 2,5 UV-I 4,7 C 59 % 82 % 100 % 1014,3 hPa 0,0 l/m 10,2 km/h (2 Bft) 1,00 h 0,00 h 17,9 km/h (3 Bft)
20.06.2012 14:00 23,6 C 21,0 C 1,6 UV-I 3,9 C 58 % 79 % 97 % 1014,0 hPa 0,0 l/m 4,7 km/h (1 Bft) 1,00 h 0,00 h 8,0 km/h (2 Bft)
20.06.2012 15:00 23,7 C 21,6 C 1,6 UV-I 3,9 C 58 % 77 % 100 % 1013,9 hPa 0,0 l/m 4,6 km/h (1 Bft) 1,00 h 0,00 h 9,1 km/h (2 Bft)
20.06.2012 16:00 23,8 C 22,0 C 0,9 UV-I 2,8 C 57 % 76 % 75 % 1013,8 hPa 0,0 l/m 3,1 km/h (1 Bft) 0,47 h 0,00 h 5,0 km/h (1 Bft)
20.06.2012 17:00 23,6 C 21,8 C 0,5 UV-I 1,5 C 58 % 77 % 42 % 1013,5 hPa 0,0 l/m 3,7 km/h (1 Bft) 0,00 h 0,00 h 6,9 km/h (2 Bft)
20.06.2012 18:00 23,5 C 21,5 C 0,0 UV-I 0,3 C 58 % 78 % 9 % 1013,5 hPa 0,0 l/m 5,1 km/h (1 Bft) 0,00 h 0,00 h 8,2 km/h (2 Bft)
20.06.2012 19:00 23,3 C 21,4 C 0,0 UV-I 0,3 C 60 % 79 % 9 % 1013,4 hPa 0,0 l/m 3,5 km/h (1 Bft) 0,00 h 0,00 h 5,9 km/h (2 Bft)
20.06.2012 20:00 23,2 C 21,1 C 0,0 UV-I 0,0 C 60 % 80 % 0 % 1013,4 hPa 0,0 l/m 1,9 km/h (1 Bft) 0,00 h 0,00 h 4,3 km/h (1 Bft)
20.06.2012 21:00 23,1 C 20,6 C 0,0 UV-I 0,0 C 60 % 82 % 0 % 1013,3 hPa 0,0 l/m 1,6 km/h (1 Bft) 0,00 h 0,00 h 2,4 km/h (1 Bft)
20.06.2012 22:00 23,0 C 19,9 C 0,0 UV-I 0,0 C 61 % 84 % 0 % 1013,2 hPa 0,0 l/m 0,0 km/h (0 Bft) 0,00 h 0,00 h 0,0 km/h (0 Bft)
20.06.2012 23:00 22,9 C 19,0 C 0,0 UV-I 0,0 C 61 % 87 % 0 % 1013,0 hPa 0,0 l/m 0,0 km/h (0 Bft) 0,00 h 0,00 h 0,0 km/h (0 Bft)
21.06.2012 00:00 22,8 C 18,7 C 0,0 UV-I 0,0 C 62 % 89 % 0 % 1013,3 hPa 0,0 l/m 0,5 km/h (0 Bft) 0,00 h 0,00 h 1,7 km/h (1 Bft)
21.06.2012 01:00 22,7 C 18,1 C 0,0 UV-I 0,0 C 62 % 89 % 0 % 1013,3 hPa 0,0 l/m 0,3 km/h (0 Bft) 0,00 h 0,00 h 0,3 km/h (0 Bft)
21.06.2012 02:00 22,5 C 16,8 C 0,0 UV-I 0,0 C 63 % 91 % 0 % 1012,7 hPa 0,0 l/m 0,0 km/h (0 Bft) 0,00 h 0,00 h 0,0 km/h (0 Bft)
21.06.2012 03:00 22,3 C 15,7 C 0,0 UV-I 0,0 C 63 % 92 % 0 % 1012,3 hPa 0,0 l/m 0,0 km/h (0 Bft) 0,00 h 0,00 h 0,0 km/h (0 Bft)
21.06.2012 04:00 22,1 C 15,1 C 0,0 UV-I 0,0 C 63 % 93 % 0 % 1011,8 hPa 0,0 l/m 0,0 km/h (0 Bft) 0,00 h 0,00 h 0,0 km/h (0 Bft)
21.06.2012 05:00 22,0 C 14,9 C 0,0 UV-I 0,0 C 64 % 94 % 0 % 1011,9 hPa 0,0 l/m 0,1 km/h (0 Bft) 0,00 h 0,03 h 0,0 km/h (0 Bft)
21.06.2012 06:00 22,0 C 15,5 C 0,0 UV-I 0,0 C 64 % 95 % 0 % 1011,4 hPa 0,0 l/m 0,1 km/h (0 Bft) 0,00 h 0,00 h 0,3 km/h (0 Bft)
21.06.2012 07:00 22,1 C 16,5 C 0,1 UV-I 0,9 C 64 % 95 % 26 % 1011,1 hPa 0,0 l/m 0,1 km/h (0 Bft) 0,00 h 0,00 h 0,0 km/h (0 Bft)
21.06.2012 08:00 22,4 C 17,9 C 1,0 UV-I 3,2 C 63 % 92 % 78 % 1011,0 hPa 0,0 l/m 2,6 km/h (1 Bft) 0,40 h 0,00 h 6,0 km/h (2 Bft)
21.06.2012 09:00 22,7 C 19,4 C 1,7 UV-I 4,8 C 63 % 87 % 100 % 1010,8 hPa 0,0 l/m 3,2 km/h (1 Bft) 1,00 h 0,00 h 7,0 km/h (2 Bft)
21.06.2012 10:00 22,9 C 20,5 C 2,1 UV-I 4,4 C 63 % 82 % 99 % 1010,4 hPa 0,0 l/m 2,8 km/h (1 Bft) 1,00 h 0,00 h 5,3 km/h (1 Bft)
21.06.2012 11:00 23,2 C 21,5 C 2,0 UV-I 4,3 C 62 % 77 % 100 % 1010,4 hPa 0,0 l/m 3,3 km/h (1 Bft) 1,00 h 0,00 h 6,1 km/h (2 Bft)
21.06.2012 12:00 23,5 C 22,2 C 1,9 UV-I 3,7 C 61 % 74 % 99 % 1010,1 hPa 0,0 l/m 4,4 km/h (1 Bft) 1,00 h 0,00 h 8,4 km/h (2 Bft)
21.06.2012 13:00 23,8 C 23,0 C 2,4 UV-I 4,3 C 60 % 73 % 96 % 1009,9 hPa 0,0 l/m 4,7 km/h (1 Bft) 0,87 h 0,00 h 8,8 km/h (2 Bft)
21.06.2012 14:00 24,0 C 23,2 C 1,4 UV-I 2,5 C 59 % 72 % 72 % 1009,3 hPa 0,0 l/m 5,3 km/h (1 Bft) 0,27 h 0,00 h 9,9 km/h (2 Bft)
21.06.2012 15:00 24,1 C 22,9 C 1,1 UV-I 1,8 C 59 % 73 % 50 % 1008,7 hPa 0,0 l/m 6,0 km/h (2 Bft) 0,00 h 0,03 h 11,6 km/h (2 Bft)
21.06.2012 16:00 24,1 C 23,3 C 1,5 UV-I 2,1 C 60 % 73 % 60 % 1008,0 hPa 0,0 l/m 6,6 km/h (2 Bft) 0,00 h 0,00 h 9,9 km/h (2 Bft)
21.06.2012 17:00 24,3 C 23,7 C 1,3 UV-I 1,9 C 59 % 72 % 54 % 1007,4 hPa 0,0 l/m 7,0 km/h (2 Bft) 0,00 h 0,00 h 10,7 km/h (2 Bft)
21.06.2012 18:00 24,3 C 23,2 C 0,5 UV-I 0,8 C 59 % 74 % 22 % 1006,8 hPa 0,0 l/m 5,6 km/h (1 Bft) 0,00 h 0,00 h 11,0 km/h (2 Bft)
21.06.2012 19:00 24,1 C 22,8 C 0,1 UV-I 0,2 C 60 % 76 % 6 % 1006,7 hPa 0,0 l/m 4,8 km/h (1 Bft) 0,00 h 0,00 h 10,2 km/h (2 Bft)
21.06.2012 20:00 23,9 C 22,0 C 0,0 UV-I 0,0 C 61 % 79 % 0 % 1006,7 hPa 3,7 l/m 7,1 km/h (2 Bft) 0,00 h 0,47 h 15,2 km/h (3 Bft)
21.06.2012 21:00 23,4 C 17,4 C 0,0 UV-I 0,0 C 63 % 87 % 0 % 1008,3 hPa 2,1 l/m 4,4 km/h (1 Bft) 0,00 h 0,67 h 6,2 km/h (2 Bft)
21.06.2012 22:00 23,0 C 16,3 C 0,0 UV-I 0,0 C 64 % 91 % 0 % 1008,8 hPa 0,0 l/m 0,5 km/h (0 Bft) 0,00 h 0,07 h 1,9 km/h (1 Bft)
21.06.2012 23:00 22,7 C 16,0 C 0,0 UV-I 0,0 C 64 % 93 % 0 % 1010,1 hPa 0,1 l/m 1,5 km/h (1 Bft) 0,00 h 0,03 h 4,2 km/h (1 Bft)
22.06.2012 00:00 22,4 C 15,8 C 0,0 UV-I 0,0 C 65 % 94 % 0 % 1011,0 hPa 0,0 l/m 1,1 km/h (1 Bft) 0,00 h 0,03 h 3,2 km/h (1 Bft)
22.06.2012 01:00 22,2 C 15,5 C 0,0 UV-I 0,0 C 65 % 94 % 0 % 1011,8 hPa 0,0 l/m 0,4 km/h (0 Bft) 0,00 h 0,03 h 1,6 km/h (1 Bft)
22.06.2012 02:00 22,1 C 15,4 C 0,0 UV-I 0,0 C 65 % 94 % 0 % 1012,7 hPa 0,0 l/m 0,5 km/h (0 Bft) 0,00 h 0,07 h 1,3 km/h (1 Bft)
22.06.2012 03:00 22,0 C 14,8 C 0,0 UV-I 0,0 C 65 % 94 % 0 % 1013,1 hPa 0,0 l/m 0,4 km/h (0 Bft) 0,00 h 0,00 h 0,5 km/h (0 Bft)
22.06.2012 04:00 21,8 C 13,7 C 0,0 UV-I 0,0 C 64 % 93 % 0 % 1013,4 hPa 0,0 l/m 0,1 km/h (0 Bft) 0,00 h 0,03 h 0,6 km/h (0 Bft)
22.06.2012 05:00 21,6 C 12,5 C 0,0 UV-I 0,0 C 64 % 93 % 0 % 1013,5 hPa 0,0 l/m 0,7 km/h (0 Bft) 0,00 h 0,00 h 1,7 km/h (1 Bft)
22.06.2012 06:00 21,4 C 12,6 C 0,0 UV-I 0,0 C 63 % 94 % 0 % 1013,8 hPa 0,0 l/m 2,9 km/h (1 Bft) 0,00 h 0,00 h 7,6 km/h (2 Bft)
22.06.2012 07:00 21,4 C 13,8 C 0,2 UV-I 0,0 C 60 % 90 % 0 % 1014,0 hPa 0,0 l/m 8,3 km/h (2 Bft) 0,00 h 0,00 h 17,9 km/h (3 Bft)
22.06.2012 08:00 21,4 C 14,8 C 0,9 UV-I 4,4 C 59 % 85 % 82 % 1014,5 hPa 0,0 l/m 9,1 km/h (2 Bft) 0,80 h 0,00 h 15,9 km/h (3 Bft)
22.06.2012 09:00 21,5 C 16,0 C 2,7 UV-I 5,5 C 58 % 79 % 100 % 1015,0 hPa 0,0 l/m 7,4 km/h (2 Bft) 1,00 h 0,00 h 12,8 km/h (3 Bft)
22.06.2012 10:00 21,8 C 16,6 C 2,2 UV-I 3,9 C 57 % 75 % 91 % 1015,3 hPa 0,0 l/m 8,5 km/h (2 Bft) 0,80 h 0,00 h 16,1 km/h (3 Bft)
22.06.2012 11:00 22,1 C 17,5 C 2,1 UV-I 4,3 C 56 % 71 % 100 % 1015,3 hPa 0,0 l/m 8,3 km/h (2 Bft) 1,00 h 0,00 h 13,7 km/h (3 Bft)
22.06.2012 12:00 22,2 C 18,2 C 2,0 UV-I 4,2 C 54 % 69 % 97 % 1016,0 hPa 0,0 l/m 10,1 km/h (2 Bft) 0,97 h 0,00 h 21,7 km/h (4 Bft)
22.06.2012 13:00 22,5 C 18,9 C 2,0 UV-I 3,8 C 54 % 65 % 90 % 1016,2 hPa 0,0 l/m 8,5 km/h (2 Bft) 0,80 h 0,00 h 14,7 km/h (3 Bft)
22.06.2012 14:00 23,1 C 19,6 C 2,3 UV-I 3,8 C 52 % 61 % 91 % 1016,3 hPa 0,0 l/m 9,0 km/h (2 Bft) 0,83 h 0,00 h 15,4 km/h (3 Bft)
22.06.2012 15:00 23,5 C 19,2 C 1,6 UV-I 2,3 C 50 % 63 % 63 % 1016,7 hPa 0,0 l/m 6,8 km/h (2 Bft) 0,30 h 0,00 h 12,3 km/h (3 Bft)
22.06.2012 16:00 24,6 C 20,7 C 2,5 UV-I 4,3 C 48 % 59 % 99 % 1016,0 hPa 0,0 l/m 8,0 km/h (2 Bft) 1,00 h 0,00 h 14,8 km/h (3 Bft)
22.06.2012 17:00 24,7 C 20,0 C 1,9 UV-I 2,5 C 47 % 60 % 63 % 1016,6 hPa 0,0 l/m 7,5 km/h (2 Bft) 0,33 h 0,00 h 14,8 km/h (3 Bft)
22.06.2012 18:00 24,6 C 19,9 C 0,6 UV-I 1,6 C 47 % 60 % 44 % 1016,5 hPa 0,0 l/m 7,1 km/h (2 Bft) 0,20 h 0,03 h 13,0 km/h (3 Bft)
22.06.2012 19:00 23,9 C 18,0 C 0,3 UV-I 0,4 C 48 % 69 % 10 % 1017,9 hPa 0,0 l/m 4,3 km/h (1 Bft) 0,00 h 0,00 h 8,2 km/h (2 Bft)
22.06.2012 20:00 23,5 C 17,8 C 0,0 UV-I 0,2 C 50 % 70 % 6 % 1018,2 hPa 0,0 l/m 2,3 km/h (1 Bft) 0,00 h 0,00 h 5,1 km/h (1 Bft)
22.06.2012 21:00 23,2 C 17,3 C 0,0 UV-I 0,0 C 51 % 71 % 0 % 1018,7 hPa 0,0 l/m 1,1 km/h (0 Bft) 0,00 h 0,00 h 4,9 km/h (1 Bft)
22.06.2012 22:00 22,7 C 16,3 C 0,0 UV-I 0,0 C 52 % 73 % 0 % 1019,3 hPa 0,0 l/m 0,7 km/h (0 Bft) 0,00 h 0,00 h 1,5 km/h (1 Bft)
22.06.2012 23:00 22,3 C 15,3 C 0,0 UV-I 0,0 C 53 % 76 % 0 % 1019,7 hPa 0,0 l/m 0,3 km/h (0 Bft) 0,00 h 0,00 h 1,6 km/h (1 Bft)
23.06.2012 00:00 22,0 C 14,8 C 0,0 UV-I 0,0 C 53 % 77 % 0 % 1020,0 hPa 0,0 l/m 0,7 km/h (0 Bft) 0,00 h 0,00 h 2,4 km/h (1 Bft)
23.06.2012 01:00 21,8 C 13,9 C 0,0 UV-I 0,0 C 54 % 79 % 0 % 1020,3 hPa 0,0 l/m 0,2 km/h (0 Bft) 0,00 h 0,00 h 0,3 km/h (0 Bft)
23.06.2012 02:00 21,6 C 13,6 C 0,0 UV-I 0,0 C 54 % 80 % 0 % 1020,1 hPa 0,0 l/m 0,5 km/h (0 Bft) 0,00 h 0,00 h 1,8 km/h (1 Bft)
23.06.2012 03:00 21,5 C 13,2 C 0,0 UV-I 0,0 C 54 % 80 % 0 % 1020,1 hPa 0,0 l/m 0,3 km/h (0 Bft) 0,00 h 0,00 h 2,3 km/h (1 Bft)
23.06.2012 04:00 21,3 C 13,1 C 0,0 UV-I 0,0 C 54 % 80 % 0 % 1020,4 hPa 0,0 l/m 1,8 km/h (1 Bft) 0,00 h 0,00 h 6,6 km/h (2 Bft)
23.06.2012 05:00 21,2 C 13,4 C 0,0 UV-I 0,0 C 54 % 79 % 0 % 1020,6 hPa 0,0 l/m 2,9 km/h (1 Bft) 0,00 h 0,00 h 7,0 km/h (2 Bft)
23.06.2012 06:00 21,1 C 13,6 C 0,0 UV-I 0,0 C 53 % 78 % 0 % 1021,2 hPa 0,0 l/m 3,3 km/h (1 Bft) 0,00 h 0,00 h 7,4 km/h (2 Bft)
23.06.2012 07:00 21,1 C 13,9 C 0,0 UV-I 0,3 C 54 % 79 % 8 % 1021,5 hPa 0,0 l/m 2,6 km/h (1 Bft) 0,00 h 0,00 h 6,3 km/h (2 Bft)
23.06.2012 08:00 21,3 C 14,7 C 0,4 UV-I 1,2 C 53 % 79 % 34 % 1021,9 hPa 0,0 l/m 4,5 km/h (1 Bft) 0,00 h 0,00 h 8,0 km/h (2 Bft)
23.06.2012 09:00 21,2 C 15,5 C 1,7 UV-I 3,4 C 52 % 77 % 78 % 1022,1 hPa 0,0 l/m 3,8 km/h (1 Bft) 0,60 h 0,00 h 9,3 km/h (2 Bft)
23.06.2012 10:00 21,2 C 17,4 C 4,4 UV-I 7,3 C 53 % 72 % 100 % 1022,3 hPa 0,0 l/m 5,9 km/h (2 Bft) 1,00 h 0,00 h 11,4 km/h (2 Bft)
23.06.2012 11:00 21,2 C 18,4 C 3,4 UV-I 6,0 C 52 % 66 % 100 % 1022,1 hPa 0,0 l/m 7,8 km/h (2 Bft) 1,00 h 0,00 h 14,6 km/h (3 Bft)
23.06.2012 12:00 21,4 C 19,3 C 2,4 UV-I 5,7 C 51 % 62 % 100 % 1022,1 hPa 0,0 l/m 7,6 km/h (2 Bft) 1,00 h 0,00 h 13,3 km/h (3 Bft)
23.06.2012 13:00 22,0 C 20,1 C 2,3 UV-I 4,8 C 49 % 58 % 99 % 1022,1 hPa 0,0 l/m 9,2 km/h (2 Bft) 1,00 h 0,00 h 14,6 km/h (3 Bft)
23.06.2012 14:00 22,6 C 20,5 C 2,3 UV-I 4,1 C 48 % 57 % 98 % 1022,1 hPa 0,0 l/m 9,2 km/h (2 Bft) 1,00 h 0,00 h 17,2 km/h (3 Bft)
23.06.2012 15:00 23,9 C 21,2 C 2,5 UV-I 4,8 C 45 % 54 % 100 % 1022,0 hPa 0,0 l/m 7,8 km/h (2 Bft) 1,00 h 0,00 h 13,6 km/h (3 Bft)
23.06.2012 16:00 24,8 C 21,4 C 2,7 UV-I 4,4 C 43 % 53 % 100 % 1021,4 hPa 0,0 l/m 7,2 km/h (2 Bft) 1,00 h 0,00 h 12,7 km/h (3 Bft)
23.06.2012 17:00 25,4 C 21,4 C 3,2 UV-I 4,2 C 40 % 51 % 100 % 1021,2 hPa 0,0 l/m 7,0 km/h (2 Bft) 1,00 h 0,00 h 12,3 km/h (3 Bft)
23.06.2012 18:00 25,1 C 20,9 C 1,4 UV-I 2,6 C 40 % 51 % 72 % 1021,3 hPa 0,0 l/m 5,7 km/h (1 Bft) 0,47 h 0,00 h 10,2 km/h (2 Bft)
23.06.2012 19:00 24,3 C 20,1 C 0,6 UV-I 0,2 C 41 % 54 % 7 % 1021,6 hPa 0,0 l/m 4,5 km/h (1 Bft) 0,00 h 0,00 h 9,7 km/h (2 Bft)
23.06.2012 20:00 23,7 C 19,2 C 0,1 UV-I 0,0 C 43 % 57 % 0 % 1021,5 hPa 0,0 l/m 1,4 km/h (1 Bft) 0,00 h 0,00 h 3,4 km/h (1 Bft)
23.06.2012 21:00 23,2 C 18,0 C 0,0 UV-I 0,0 C 45 % 62 % 0 % 1021,6 hPa 0,0 l/m 0,1 km/h (0 Bft) 0,00 h 0,00 h 0,6 km/h (0 Bft)
23.06.2012 22:00 22,8 C 16,8 C 0,0 UV-I 0,0 C 46 % 65 % 0 % 1021,7 hPa 0,0 l/m 0,0 km/h (0 Bft) 0,00 h 0,00 h 0,0 km/h (0 Bft)
23.06.2012 23:00 22,5 C 16,5 C 0,0 UV-I 0,0 C 46 % 67 % 0 % 1021,4 hPa 0,0 l/m 0,2 km/h (0 Bft) 0,00 h 0,00 h 0,6 km/h (0 Bft)
24.06.2012 00:00 22,2 C 16,3 C 0,0 UV-I 0,0 C 47 % 69 % 0 % 1021,2 hPa 0,0 l/m 0,0 km/h (0 Bft) 0,00 h 0,00 h 0,0 km/h (0 Bft)
24.06.2012 01:00 22,0 C 15,6 C 0,0 UV-I 0,0 C 48 % 71 % 0 % 1020,7 hPa 0,0 l/m 0,0 km/h (0 Bft) 0,00 h 0,00 h 0,0 km/h (0 Bft)
24.06.2012 02:00 21,9 C 14,8 C 0,0 UV-I 0,0 C 50 % 75 % 0 % 1020,1 hPa 0,0 l/m 0,0 km/h (0 Bft) 0,00 h 0,00 h 0,0 km/h (0 Bft)
24.06.2012 03:00 21,8 C 14,5 C 0,0 UV-I 0,0 C 51 % 79 % 0 % 1019,6 hPa 0,0 l/m 1,0 km/h (0 Bft) 0,00 h 0,00 h 2,3 km/h (1 Bft)
24.06.2012 04:00 21,6 C 14,6 C 0,0 UV-I 0,0 C 51 % 79 % 0 % 1018,8 hPa 0,0 l/m 0,7 km/h (0 Bft) 0,00 h 0,00 h 2,8 km/h (1 Bft)
24.06.2012 05:00 21,6 C 14,7 C 0,0 UV-I 0,0 C 52 % 80 % 0 % 1017,8 hPa 0,0 l/m 1,2 km/h (1 Bft) 0,00 h 0,00 h 3,3 km/h (1 Bft)
24.06.2012 06:00 21,6 C 15,0 C 0,0 UV-I 0,1 C 52 % 80 % 2 % 1016,8 hPa 0,0 l/m 2,9 km/h (1 Bft) 0,00 h 0,00 h 6,5 km/h (2 Bft)
24.06.2012 07:00 21,5 C 15,7 C 0,0 UV-I 0,4 C 52 % 78 % 11 % 1016,1 hPa 0,0 l/m 4,5 km/h (1 Bft) 0,00 h 0,00 h 10,2 km/h (2 Bft)
24.06.2012 08:00 21,3 C 16,1 C 0,1 UV-I 0,4 C 52 % 76 % 11 % 1015,1 hPa 0,0 l/m 6,1 km/h (2 Bft) 0,00 h 0,07 h 11,0 km/h (2 Bft)
24.06.2012 09:00 21,4 C 16,8 C 0,6 UV-I 1,4 C 53 % 74 % 40 % 1014,1 hPa 0,0 l/m 6,4 km/h (2 Bft) 0,00 h 0,00 h 10,3 km/h (2 Bft)
24.06.2012 10:00 21,6 C 17,6 C 0,9 UV-I 1,5 C 52 % 71 % 42 % 1013,0 hPa 0,0 l/m 7,1 km/h (2 Bft) 0,00 h 0,20 h 13,9 km/h (3 Bft)
24.06.2012 11:00 21,7 C 18,0 C 1,0 UV-I 1,5 C 53 % 71 % 44 % 1012,1 hPa 0,0 l/m 9,8 km/h (2 Bft) 0,00 h 0,07 h 17,6 km/h (3 Bft)
24.06.2012 12:00 21,7 C 17,3 C 0,5 UV-I 0,3 C 54 % 76 % 8 % 1011,5 hPa 0,2 l/m 9,2 km/h (2 Bft) 0,00 h 0,67 h 16,8 km/h (3 Bft)
24.06.2012 13:00 21,3 C 15,6 C 0,5 UV-I 0,0 C 58 % 86 % 0 % 1011,4 hPa 0,1 l/m 9,5 km/h (2 Bft) 0,00 h 0,40 h 16,6 km/h (3 Bft)
24.06.2012 14:00 21,0 C 14,6 C 0,4 UV-I 0,0 C 60 % 91 % 0 % 1011,0 hPa 2,0 l/m 10,0 km/h (2 Bft) 0,00 h 1,00 h 20,8 km/h (4 Bft)
24.06.2012 15:00 20,6 C 14,4 C 0,3 UV-I 0,0 C 62 % 93 % 0 % 1011,0 hPa 1,6 l/m 7,7 km/h (2 Bft) 0,00 h 1,00 h 12,0 km/h (2 Bft)
24.06.2012 16:00 20,4 C 14,6 C 0,4 UV-I 0,1 C 64 % 94 % 2 % 1010,6 hPa 0,6 l/m 9,6 km/h (2 Bft) 0,00 h 0,67 h 16,0 km/h (3 Bft)
24.06.2012 17:00 20,4 C 15,2 C 0,4 UV-I 0,6 C 64 % 93 % 16 % 1010,4 hPa 0,0 l/m 10,2 km/h (2 Bft) 0,00 h 0,00 h 17,3 km/h (3 Bft)
24.06.2012 18:00 20,4 C 15,7 C 0,3 UV-I 0,7 C 63 % 89 % 21 % 1010,2 hPa 0,0 l/m 9,4 km/h (2 Bft) 0,00 h 0,00 h 19,2 km/h (3 Bft)
24.06.2012 19:00 20,5 C 15,7 C 0,1 UV-I 0,4 C 61 % 85 % 11 % 1010,4 hPa 0,0 l/m 9,8 km/h (2 Bft) 0,00 h 0,00 h 18,8 km/h (3 Bft)
24.06.2012 20:00 20,4 C 15,5 C 0,0 UV-I 0,1 C 61 % 86 % 3 % 1011,0 hPa 0,0 l/m 7,7 km/h (2 Bft) 0,00 h 0,00 h 12,4 km/h (3 Bft)
24.06.2012 21:00 20,2 C 15,0 C 0,0 UV-I 0,0 C 60 % 85 % 0 % 1011,9 hPa 0,0 l/m 6,7 km/h (2 Bft) 0,00 h 0,00 h 12,0 km/h (2 Bft)
24.06.2012 22:00 20,2 C 14,0 C 0,0 UV-I 0,0 C 58 % 83 % 0 % 1012,9 hPa 0,0 l/m 3,5 km/h (1 Bft) 0,00 h 0,00 h 7,5 km/h (2 Bft)
24.06.2012 23:00 20,1 C 13,0 C 0,0 UV-I 0,0 C 57 % 85 % 0 % 1013,6 hPa 0,0 l/m 1,1 km/h (1 Bft) 0,00 h 0,00 h 2,8 km/h (1 Bft)
Min-Datum _ 24.06.12 19.06.12 18.06.12 18.06.12 23.06.12 23.06.12 18.06.12 21.06.12 - 18.06.12 - - 18.06.12
_ Min-Zeit 23:36 06:26 00:00 00:00 17:20 17:18 00:00 20:16 - 00:00 - - 00:00
Minimum _ 20,0 C 10,9 C 0,0 UV-I 0,0 C 40 % 49 % 0 % 1006,2 hPa - 0,0 km/h (0 Bft) - - 0,0 km/h (0 Bft)
Max-Datum _ 23.06.12 21.06.12 23.06.12 19.06.12 21.06.12 19.06.12 18.06.12 23.06.12 18.06.12 22.06.12 18.06.12 18.06.12 24.06.12
_ Max-Zeit 17:16 13:44 10:24 10:56 23:50 07:16 09:58 10:54 08:22 12:24 09:56 08:12 13:22
Maximum _ 25,5 C 23,9 C 4,8 UV-I 9,1 C 65 % 96 % 100 % 1022,4 hPa 5,8 l/m 14,1 km/h
S (3 Bft)
0,03 h 0,03 h 54,2 km/h
SW (7 Bft)
Durchschnitt _ 22,3 C 17,1 C 0,7 UV-I 1,4 C 57 % 80 % 32 % 1015,7 hPa #16,8 l/m 3,9 km/h (1 Bft) #37:48 h #8:32 h 7,3 km/h (2 Bft)
© 2012 W. Hausmann